KCCR/CCR METAR and TAF weather

Enter ICAO airport designator
Station Type Date Time Source
KCCR METAR 2019/02/20 07:53 UTC NOAA

KCCR 200753Z AUTO 19007KT 10SM CLR 08/04 A3007 RMK AO2 SLP169 T00830039 401500000


Station Type Date Time Source
KCCR Decoded METAR 2019/02/20 07:53 UTC NOAA

CONCORD BUCHANAN FIELD, CA, United States (KCCR) 38-00N 122-03W 11M
Feb 20, 2019 - 02:53 AM EST / 2019.02.20 0753 UTC
Wind: from the S (190 degrees) at 8 MPH (7 KT):0
Visibility: 10 mile(s):0
Sky conditions: clear
Temperature: 46.9 F (8.3 C)
Dew Point: 39.0 F (3.9 C)
Relative Humidity: 73%
Pressure (altimeter): 30.07 in. Hg (1018 hPa)
ob: KCCR 200753Z AUTO 19007KT 10SM CLR 08/04 A3007 RMK AO2 SLP169 T00830039 401500000
cycle: 8

Station Type Date Time Source
KCCR TAF 2016/02/08 18:39 UTC NOAA

TAF KCCR 081738Z 0818/0918 07006KT P6SM SKC
FM082000 06010KT P6SM SKC
FM090000 06005KT P6SM SKC
FM090600 VRB03KT P6SM SKC


Example: see airport list